Time;durP1;ratioP1;P1;durP2;ratioP2;P2;SDS_P1;SDS_P2;PMS_P1;PMS_P2;Temp;Humidity;BMP_temperature;BMP_pressure;BME280_temperature;BME280_humidity;BME280_pressure;Samples;Min_cycle;Max_cycle;Signal;HPM_P1;HPM_P2
2023/03/27 00:00:58;;;;;;;3.33;2.80;;;;;;;;;;5012537;28;20076;-88
2023/03/27 00:03:24;;;;;;;3.35;3.03;;;;;;;;;;5010731;28;20065;-88
2023/03/27 00:05:58;;;;;;;4.32;3.50;;;;;;;;;;5024938;28;20038;-88
2023/03/27 00:08:25;;;;;;;4.93;3.70;;;;;;;;;;5027305;28;20050;-89
2023/03/27 00:10:51;;;;;;;4.22;3.80;;;;;;;;;;5011043;28;20037;-88
2023/03/27 00:13:17;;;;;;;4.82;4.32;;;;;;;;;;5002571;28;20045;-88
2023/03/27 00:15:43;;;;;;;4.03;3.65;;;;;;;;;;5007979;28;20034;-88
2023/03/27 00:18:08;;;;;;;4.05;3.38;;;;;;;;;;5007800;28;20032;-88
2023/03/27 00:20:36;;;;;;;5.75;3.60;;;;;;;;;;5021990;28;20033;-90
2023/03/27 00:23:02;;;;;;;3.80;3.40;;;;;;;;;;5015246;28;20076;-87
2023/03/27 00:25:28;;;;;;;6.78;3.53;;;;;;;;;;5015893;28;20113;-90
2023/03/27 00:27:55;;;;;;;4.10;2.97;;;;;;;;;;5015053;28;20080;-88
2023/03/27 00:30:21;;;;;;;4.13;3.15;;;;;;;;;;5014214;28;20029;-87
2023/03/27 00:32:46;;;;;;;4.15;3.72;;;;;;;;;;5015777;28;20112;-88
2023/03/27 00:35:13;;;;;;;3.80;3.20;;;;;;;;;;5016155;28;20025;-88
2023/03/27 00:37:38;;;;;;;5.65;3.80;;;;;;;;;;5015785;28;20108;-89
2023/03/27 00:40:07;;;;;;;4.20;3.80;;;;;;;;;;5010395;28;20026;-89
2023/03/27 00:42:33;;;;;;;3.72;3.42;;;;;;;;;;5016367;28;20033;-89
2023/03/27 00:44:59;;;;;;;3.33;3.03;;;;;;;;;;5031269;28;20034;-90
2023/03/27 00:47:32;;;;;;;4.82;3.80;;;;;;;;;;5012335;28;20512;-89
2023/03/27 00:50:00;;;;;;;3.70;2.53;;;;;;;;;;5015577;28;20100;-88
2023/03/27 00:52:28;;;;;;;2.92;2.17;;;;;;;;;;5013864;28;20100;-86
2023/03/27 00:54:54;;;;;;;2.22;1.92;;;;;;;;;;5014294;28;20050;-87
2023/03/27 00:57:20;;;;;;;2.75;2.03;;;;;;;;;;5015193;28;20038;-87
2023/03/27 00:59:48;;;;;;;2.22;2.03;;;;;;;;;;5014841;28;20038;-87
2023/03/27 01:02:13;;;;;;;2.20;1.67;;;;;;;;;;5013664;28;20034;-87
2023/03/27 01:04:40;;;;;;;1.88;1.67;;;;;;;;;;5011460;28;20046;-87
2023/03/27 01:07:14;;;;;;;1.42;1.33;;;;;;;;;;5004621;28;20034;-90
2023/03/27 01:09:40;;;;;;;1.80;1.27;;;;;;;;;;5007533;28;20026;-87
2023/03/27 01:12:15;;;;;;;1.40;1.30;;;;;;;;;;5013446;28;20034;-87
2023/03/27 01:14:49;;;;;;;1.40;1.30;;;;;;;;;;5030453;28;20549;-87
2023/03/27 01:17:33;;;;;;;2.22;1.20;;;;;;;;;;5014191;28;20473;-86
2023/03/27 01:20:26;;;;;;;1.65;1.20;;;;;;;;;;5014504;28;20189;-87
2023/03/27 01:23:10;;;;;;;0.98;0.98;;;;;;;;;;5011648;28;20071;-87
2023/03/27 01:25:51;;;;;;;0.63;0.63;;;;;;;;;;5012952;28;20026;-88
2023/03/27 01:28:22;;;;;;;1.30;1.20;;;;;;;;;;5010486;28;20636;-87
2023/03/27 01:30:47;;;;;;;0.90;0.73;;;;;;;;;;5013592;28;20073;-86
2023/03/27 01:33:33;;;;;;;0.95;0.90;;;;;;;;;;5029796;28;20501;-87
2023/03/27 01:36:28;;;;;;;0.90;0.90;;;;;;;;;;5017417;28;20038;-87
2023/03/27 01:39:04;;;;;;;0.80;0.80;;;;;;;;;;5000714;28;20046;-87
2023/03/27 01:41:34;;;;;;;0.75;0.75;;;;;;;;;;5014235;28;20033;-89
2023/03/27 01:44:04;;;;;;;0.77;0.77;;;;;;;;;;5030372;28;20037;-89
2023/03/27 01:46:40;;;;;;;0.90;0.90;;;;;;;;;;5028997;28;20034;-86
2023/03/27 01:49:32;;;;;;;1.17;0.73;;;;;;;;;;5022251;28;20037;-88
2023/03/27 01:52:00;;;;;;;2.15;1.13;;;;;;;;;;4984664;28;20042;-87
2023/03/27 01:54:28;;;;;;;2.38;0.90;;;;;;;;;;5009604;28;20038;-87
2023/03/27 01:57:01;;;;;;;0.85;0.85;;;;;;;;;;4994886;28;20124;-89
2023/03/27 01:59:27;;;;;;;1.40;0.80;;;;;;;;;;5013606;28;20057;-87
2023/03/27 02:02:28;;;;;;;0.70;0.70;;;;;;;;;;5025729;28;20095;-88
2023/03/27 02:04:57;;;;;;;0.70;0.70;;;;;;;;;;4940366;28;20035;-87
2023/03/27 02:07:46;;;;;;;0.93;0.73;;;;;;;;;;4991445;28;20049;-88
2023/03/27 02:10:32;;;;;;;1.27;0.95;;;;;;;;;;5012604;28;20548;-88
2023/03/27 02:13:21;;;;;;;1.27;0.60;;;;;;;;;;5012587;28;20072;-91
2023/03/27 02:16:06;;;;;;;0.63;0.60;;;;;;;;;;5007530;28;20092;-87
2023/03/27 02:18:53;;;;;;;0.70;0.70;;;;;;;;;;5012004;28;20062;-88
2023/03/27 02:21:18;;;;;;;0.55;0.55;;;;;;;;;;5028334;28;20071;-89
2023/03/27 02:23:44;;;;;;;1.23;0.50;;;;;;;;;;5011841;28;20038;-86
2023/03/27 02:26:11;;;;;;;0.50;0.50;;;;;;;;;;5011447;28;20072;-89
2023/03/27 02:28:47;;;;;;;0.60;0.60;;;;;;;;;;5013223;28;20030;-88
2023/03/27 02:31:31;;;;;;;0.82;0.43;;;;;;;;;;5011315;28;20072;-88
2023/03/27 02:34:03;;;;;;;0.50;0.50;;;;;;;;;;5011656;28;20204;-88
2023/03/27 02:36:32;;;;;;;1.58;0.57;;;;;;;;;;5011241;28;20033;-87
2023/03/27 02:39:00;;;;;;;1.15;0.50;;;;;;;;;;5011425;28;20698;-88
2023/03/27 02:41:30;;;;;;;0.50;0.50;;;;;;;;;;5012778;28;20042;-88
2023/03/27 02:44:03;;;;;;;0.45;0.45;;;;;;;;;;5012506;28;20425;-88
2023/03/27 02:46:34;;;;;;;0.70;0.70;;;;;;;;;;5011512;28;20040;-89
2023/03/27 02:49:06;;;;;;;0.50;0.50;;;;;;;;;;5014633;28;20036;-87
2023/03/27 02:51:43;;;;;;;0.70;0.70;;;;;;;;;;5011844;28;20041;-90
2023/03/27 02:54:17;;;;;;;3.83;0.80;;;;;;;;;;5011848;28;20525;-89
2023/03/27 02:56:47;;;;;;;0.80;0.80;;;;;;;;;;5011848;28;20033;-88
2023/03/27 02:59:29;;;;;;;0.98;0.90;;;;;;;;;;4995650;28;20052;-88
2023/03/27 03:01:55;;;;;;;1.25;0.90;;;;;;;;;;5004856;28;20034;-89
2023/03/27 03:04:27;;;;;;;1.83;0.90;;;;;;;;;;5006055;28;20029;-88
2023/03/27 03:06:53;;;;;;;1.08;0.80;;;;;;;;;;5003904;28;20440;-88
2023/03/27 03:09:18;;;;;;;1.33;0.70;;;;;;;;;;5012200;28;20018;-89
2023/03/27 03:11:48;;;;;;;1.25;1.05;;;;;;;;;;5012623;28;20038;-88
2023/03/27 03:14:16;;;;;;;1.30;1.00;;;;;;;;;;5012023;28;20030;-89
2023/03/27 03:16:41;;;;;;;1.02;0.93;;;;;;;;;;5012630;28;20034;-88
2023/03/27 03:19:07;;;;;;;1.20;1.10;;;;;;;;;;5011834;28;20037;-88
2023/03/27 03:21:33;;;;;;;3.63;1.00;;;;;;;;;;5011153;28;20515;-89
2023/03/27 03:23:59;;;;;;;1.25;1.15;;;;;;;;;;5011890;28;20125;-88
2023/03/27 03:26:25;;;;;;;1.90;1.30;;;;;;;;;;5024417;28;20042;-89
2023/03/27 03:28:51;;;;;;;2.33;1.25;;;;;;;;;;5029103;28;20049;-88
2023/03/27 03:31:17;;;;;;;2.08;1.30;;;;;;;;;;5011899;28;20037;-89
2023/03/27 03:33:42;;;;;;;1.52;1.20;;;;;;;;;;5029062;28;20034;-88
2023/03/27 03:36:08;;;;;;;1.58;1.25;;;;;;;;;;5011372;28;20034;-88
2023/03/27 03:38:34;;;;;;;2.78;1.38;;;;;;;;;;5028268;28;20482;-89
2023/03/27 03:41:00;;;;;;;2.17;1.80;;;;;;;;;;5028343;28;20080;-89
2023/03/27 03:43:26;;;;;;;3.47;1.83;;;;;;;;;;5013081;28;20045;-88
2023/03/27 03:45:52;;;;;;;4.57;2.20;;;;;;;;;;5011646;28;20033;-88
2023/03/27 03:48:18;;;;;;;6.25;2.22;;;;;;;;;;5010480;28;20037;-88
2023/03/27 03:50:44;;;;;;;2.97;2.50;;;;;;;;;;5011074;28;20184;-88
2023/03/27 03:53:10;;;;;;;5.80;2.90;;;;;;;;;;5012070;28;20489;-88
2023/03/27 03:55:36;;;;;;;3.78;2.67;;;;;;;;;;5028534;28;20030;-88
2023/03/27 03:58:01;;;;;;;4.70;3.08;;;;;;;;;;5011256;28;20124;-89
2023/03/27 04:00:27;;;;;;;5.32;3.78;;;;;;;;;;5011387;28;20045;-88
2023/03/27 04:02:53;;;;;;;10.82;3.85;;;;;;;;;;5011302;28;20026;-89
2023/03/27 04:05:19;;;;;;;8.70;4.13;;;;;;;;;;5008927;28;20044;-88
2023/03/27 04:07:45;;;;;;;8.40;3.78;;;;;;;;;;5010364;28;20073;-89
2023/03/27 04:10:12;;;;;;;7.28;4.20;;;;;;;;;;5009432;28;20070;-90
2023/03/27 04:12:38;;;;;;;7.22;4.25;;;;;;;;;;5011121;28;20049;-88
2023/03/27 04:15:03;;;;;;;8.88;4.30;;;;;;;;;;4995030;28;20377;-89
2023/03/27 04:17:32;;;;;;;9.13;5.28;;;;;;;;;;5028513;28;20065;-89
2023/03/27 04:20:01;;;;;;;11.45;5.57;;;;;;;;;;5011784;28;20434;-90
2023/03/27 04:22:26;;;;;;;12.57;4.93;;;;;;;;;;5010944;28;20037;-89
2023/03/27 04:24:52;;;;;;;7.28;4.35;;;;;;;;;;5011978;28;20362;-87
2023/03/27 04:27:18;;;;;;;10.45;4.82;;;;;;;;;;5028433;28;20034;-89
2023/03/27 04:29:46;;;;;;;7.22;5.00;;;;;;;;;;5013010;28;20101;-90
2023/03/27 04:32:17;;;;;;;9.23;4.72;;;;;;;;;;5010797;28;20044;-89
2023/03/27 04:34:43;;;;;;;12.30;5.25;;;;;;;;;;5012670;28;20069;-90
2023/03/27 04:37:09;;;;;;;9.13;5.05;;;;;;;;;;5010870;28;20030;-89
2023/03/27 04:39:41;;;;;;;11.40;4.90;;;;;;;;;;5013644;28;20464;-89
2023/03/27 04:42:06;;;;;;;7.78;4.70;;;;;;;;;;5012539;28;20050;-88
2023/03/27 04:44:33;;;;;;;9.75;5.50;;;;;;;;;;5011388;28;20030;-89
2023/03/27 04:47:00;;;;;;;8.13;4.20;;;;;;;;;;5027822;28;20030;-90
2023/03/27 04:49:26;;;;;;;9.48;4.88;;;;;;;;;;5011596;28;20026;-89
2023/03/27 04:51:52;;;;;;;9.65;4.90;;;;;;;;;;5002627;28;20547;-89
2023/03/27 04:54:17;;;;;;;8.52;4.85;;;;;;;;;;5028403;28;20083;-89
2023/03/27 04:56:44;;;;;;;5.53;4.18;;;;;;;;;;5016725;28;20062;-88
2023/03/27 04:59:30;;;;;;;10.07;5.15;;;;;;;;;;5021865;28;20691;-90
2023/03/27 05:01:57;;;;;;;10.43;5.45;;;;;;;;;;5028016;28;20037;-90
2023/03/27 05:04:25;;;;;;;10.80;4.93;;;;;;;;;;5025659;28;20515;-89
2023/03/27 05:06:57;;;;;;;8.93;4.50;;;;;;;;;;5014678;28;20608;-88
2023/03/27 05:09:23;;;;;;;13.23;4.88;;;;;;;;;;4997919;28;20168;-89
2023/03/27 05:11:48;;;;;;;12.73;4.97;;;;;;;;;;5014274;28;20489;-90
2023/03/27 05:14:21;;;;;;;8.90;4.97;;;;;;;;;;4998133;28;20034;-88
2023/03/27 05:16:50;;;;;;;11.70;4.82;;;;;;;;;;5015867;28;20404;-88
2023/03/27 05:19:18;;;;;;;9.73;4.95;;;;;;;;;;5014192;28;20060;-89
2023/03/27 05:21:45;;;;;;;7.47;4.97;;;;;;;;;;5013561;28;20086;-88
2023/03/27 05:24:10;;;;;;;9.40;5.18;;;;;;;;;;5013868;28;20034;-90
2023/03/27 05:26:37;;;;;;;11.80;5.13;;;;;;;;;;4995467;28;20040;-89
2023/03/27 05:29:04;;;;;;;8.10;4.88;;;;;;;;;;5030648;28;20061;-88
2023/03/27 05:31:31;;;;;;;11.90;5.18;;;;;;;;;;5014111;28;20087;-89
2023/03/27 05:33:57;;;;;;;8.77;4.88;;;;;;;;;;4994466;28;20045;-88
2023/03/27 05:36:23;;;;;;;8.93;4.60;;;;;;;;;;5003656;28;20489;-89
2023/03/27 05:38:49;;;;;;;9.00;4.63;;;;;;;;;;5015133;28;20533;-89
2023/03/27 05:41:15;;;;;;;7.20;4.22;;;;;;;;;;5014571;28;20041;-88
2023/03/27 05:43:41;;;;;;;6.55;4.53;;;;;;;;;;5014047;28;20090;-89
2023/03/27 05:46:06;;;;;;;10.65;5.00;;;;;;;;;;5021929;28;20123;-89
2023/03/27 05:48:32;;;;;;;11.07;4.93;;;;;;;;;;5015572;28;20021;-89
2023/03/27 05:50:58;;;;;;;7.68;4.50;;;;;;;;;;5011332;28;20030;-90
2023/03/27 05:53:23;;;;;;;8.88;4.47;;;;;;;;;;4999547;28;20034;-92
2023/03/27 05:55:48;;;;;;;6.60;4.65;;;;;;;;;;5015855;28;20118;-92
2023/03/27 05:58:14;;;;;;;11.20;4.65;;;;;;;;;;4998671;28;20042;-90
2023/03/27 06:00:41;;;;;;;9.63;4.82;;;;;;;;;;5015266;28;20108;-88
2023/03/27 06:03:08;;;;;;;9.00;4.38;;;;;;;;;;5032914;28;20033;-88
2023/03/27 06:05:34;;;;;;;15.13;5.22;;;;;;;;;;5007328;28;20061;-88
2023/03/27 06:07:59;;;;;;;7.78;4.30;;;;;;;;;;5017869;28;20046;-88
2023/03/27 06:10:25;;;;;;;12.55;4.80;;;;;;;;;;5015697;28;20064;-87
2023/03/27 06:12:59;;;;;;;10.35;4.20;;;;;;;;;;5024089;28;20072;-89
2023/03/27 06:15:24;;;;;;;9.25;4.40;;;;;;;;;;5014629;28;20087;-89
2023/03/27 06:17:50;;;;;;;8.98;4.43;;;;;;;;;;5013314;28;20485;-89
2023/03/27 06:20:15;;;;;;;9.57;4.50;;;;;;;;;;5014752;28;20038;-89
2023/03/27 06:22:45;;;;;;;9.48;4.35;;;;;;;;;;5029571;28;20116;-89
2023/03/27 06:25:10;;;;;;;8.88;4.75;;;;;;;;;;5014561;28;20044;-90
2023/03/27 06:27:36;;;;;;;10.35;4.93;;;;;;;;;;5013842;28;20034;-89
2023/03/27 06:30:02;;;;;;;7.78;4.20;;;;;;;;;;5015256;28;20022;-88
2023/03/27 06:32:27;;;;;;;8.98;5.25;;;;;;;;;;5014132;28;20184;-89
2023/03/27 06:34:53;;;;;;;10.60;4.82;;;;;;;;;;5013341;28;20056;-89
2023/03/27 06:37:18;;;;;;;9.07;4.70;;;;;;;;;;5015062;28;20057;-89
2023/03/27 06:39:44;;;;;;;6.43;4.05;;;;;;;;;;5012783;28;20401;-89
2023/03/27 06:42:09;;;;;;;11.90;4.90;;;;;;;;;;5016575;28;20489;-89
2023/03/27 06:49:52;;;;;;;7.53;4.77;;;;;;;;;;5042544;27;2842271;-89
2023/03/27 06:52:18;;;;;;;8.77;4.40;;;;;;;;;;5092454;28;20042;-88
2023/03/27 06:54:43;;;;;;;4.80;4.00;;;;;;;;;;5113439;28;20084;-89
2023/03/27 06:57:10;;;;;;;9.60;4.03;;;;;;;;;;5076097;27;20070;-88
2023/03/27 06:59:35;;;;;;;8.73;4.28;;;;;;;;;;5014772;28;2454735;-91
2023/03/27 07:02:01;;;;;;;7.40;4.25;;;;;;;;;;5091746;28;20039;-91
2023/03/27 07:04:27;;;;;;;5.03;3.53;;;;;;;;;;5091154;28;20028;-87
2023/03/27 07:07:00;;;;;;;10.57;4.30;;;;;;;;;;5113509;28;20058;-91
2023/03/27 07:09:26;;;;;;;5.90;3.60;;;;;;;;;;5054343;28;20479;-91
2023/03/27 07:11:51;;;;;;;8.27;3.75;;;;;;;;;;5095228;28;20032;-90
2023/03/27 07:14:16;;;;;;;5.93;3.97;;;;;;;;;;5106323;28;20023;-91
2023/03/27 07:16:42;;;;;;;12.98;4.20;;;;;;;;;;5100533;28;20044;-91
2023/03/27 07:19:07;;;;;;;6.40;3.53;;;;;;;;;;5108483;28;20048;-91
2023/03/27 07:21:33;;;;;;;5.65;3.00;;;;;;;;;;5077216;28;20077;-89
2023/03/27 07:23:58;;;;;;;7.70;3.25;;;;;;;;;;5114923;28;20118;-90
2023/03/27 07:26:24;;;;;;;5.20;3.35;;;;;;;;;;5112713;28;20493;-90
2023/03/27 07:28:50;;;;;;;8.13;3.15;;;;;;;;;;5097202;28;20163;-90
2023/03/27 07:31:17;;;;;;;6.35;2.60;;;;;;;;;;5064863;28;20040;-89
2023/03/27 07:33:42;;;;;;;4.93;2.50;;;;;;;;;;5087728;28;20480;-88
2023/03/27 07:36:08;;;;;;;4.07;2.03;;;;;;;;;;5071415;28;20025;-90
2023/03/27 07:38:34;;;;;;;5.93;2.15;;;;;;;;;;5089049;28;20455;-89
2023/03/27 07:41:05;;;;;;;3.72;2.17;;;;;;;;;;5067362;28;20066;-90
2023/03/27 07:43:34;;;;;;;4.93;2.67;;;;;;;;;;5061196;28;20040;-88
2023/03/27 07:46:01;;;;;;;4.28;1.95;;;;;;;;;;5091503;28;20154;-88
2023/03/27 07:48:28;;;;;;;3.65;1.55;;;;;;;;;;5105612;28;20176;-89
2023/03/27 07:50:59;;;;;;;4.40;1.40;;;;;;;;;;5109076;28;20088;-90
2023/03/27 07:53:24;;;;;;;3.22;1.50;;;;;;;;;;5087727;28;20038;-90
2023/03/27 07:55:52;;;;;;;4.75;1.67;;;;;;;;;;5102345;28;20110;-90
2023/03/27 07:58:20;;;;;;;5.30;1.70;;;;;;;;;;5109668;28;20031;-91
2023/03/27 08:00:50;;;;;;;5.28;1.60;;;;;;;;;;5100308;28;20028;-91
2023/03/27 08:03:16;;;;;;;3.97;1.73;;;;;;;;;;5095474;28;20031;-91
2023/03/27 08:05:42;;;;;;;1.38;1.27;;;;;;;;;;5093933;28;20051;-91
2023/03/27 08:08:08;;;;;;;2.40;1.45;;;;;;;;;;5096956;28;20115;-91
2023/03/27 08:10:34;;;;;;;4.45;1.73;;;;;;;;;;5095869;28;20111;-90
2023/03/27 08:13:00;;;;;;;4.85;1.65;;;;;;;;;;5095858;28;20063;-90
2023/03/27 08:15:25;;;;;;;5.18;1.50;;;;;;;;;;5095854;28;20491;-92
2023/03/27 08:17:53;;;;;;;2.25;1.70;;;;;;;;;;5076153;28;20032;-91
2023/03/27 08:20:19;;;;;;;2.33;1.20;;;;;;;;;;5050521;28;20041;-92
2023/03/27 08:22:45;;;;;;;4.95;1.58;;;;;;;;;;5075284;28;20055;-93
2023/03/27 08:25:11;;;;;;;2.92;1.40;;;;;;;;;;5058629;28;20119;-90
2023/03/27 08:27:37;;;;;;;1.77;1.40;;;;;;;;;;5074534;28;20092;-92
2023/03/27 08:30:03;;;;;;;2.42;1.33;;;;;;;;;;5059349;28;20032;-92
2023/03/27 08:32:32;;;;;;;2.40;1.27;;;;;;;;;;5075420;28;20059;-92
2023/03/27 08:34:58;;;;;;;3.35;1.02;;;;;;;;;;5076268;28;20024;-92
2023/03/27 08:37:23;;;;;;;2.03;1.00;;;;;;;;;;5076637;28;20079;-91
2023/03/27 08:40:18;;;;;;;2.50;1.08;;;;;;;;;;5077820;28;20097;-92
2023/03/27 08:46:20;;;;;;;1.17;0.80;;;;;;;;;;5082979;28;20090;-92
2023/03/27 08:48:46;;;;;;;3.78;0.90;;;;;;;;;;5060349;28;20083;-93
2023/03/27 08:51:21;;;;;;;1.27;0.85;;;;;;;;;;5063589;28;20039;-93
2023/03/27 08:53:50;;;;;;;3.75;1.15;;;;;;;;;;5062217;28;20044;-92
2023/03/27 08:56:17;;;;;;;2.47;0.95;;;;;;;;;;5078625;28;20029;-92
2023/03/27 08:58:49;;;;;;;3.33;1.30;;;;;;;;;;5062247;28;20046;-90
2023/03/27 09:01:44;;;;;;;4.05;1.38;;;;;;;;;;5079645;28;20047;-91
2023/03/27 09:04:37;;;;;;;5.43;1.20;;;;;;;;;;5077665;28;20077;-92
2023/03/27 09:07:30;;;;;;;1.70;0.90;;;;;;;;;;5078525;28;20428;-92
2023/03/27 09:10:26;;;;;;;2.40;0.93;;;;;;;;;;5076038;28;20102;-91
2023/03/27 09:13:25;;;;;;;4.32;1.45;;;;;;;;;;5075243;28;20032;-89
2023/03/27 09:15:57;;;;;;;3.95;0.90;;;;;;;;;;5056853;28;20039;-90
2023/03/27 09:18:23;;;;;;;1.42;0.90;;;;;;;;;;5094081;28;20082;-92
2023/03/27 09:20:51;;;;;;;2.72;1.20;;;;;;;;;;5061330;28;20036;-94
2023/03/27 09:23:19;;;;;;;3.55;1.02;;;;;;;;;;5061937;28;20392;-92
2023/03/27 09:25:48;;;;;;;2.13;0.88;;;;;;;;;;5057746;28;20028;-91
2023/03/27 09:28:18;;;;;;;1.75;0.80;;;;;;;;;;5055052;28;20033;-91
2023/03/27 09:30:43;;;;;;;5.32;1.30;;;;;;;;;;5056011;28;20017;-93
2023/03/27 09:33:09;;;;;;;4.03;1.13;;;;;;;;;;5048606;28;20029;-91
2023/03/27 09:35:37;;;;;;;3.38;1.10;;;;;;;;;;5076141;28;20024;-92
2023/03/27 09:38:23;;;;;;;2.30;0.82;;;;;;;;;;5060494;28;20075;-92
2023/03/27 09:40:54;;;;;;;1.80;0.98;;;;;;;;;;5060010;28;20033;-91
2023/03/27 09:43:21;;;;;;;4.65;1.10;;;;;;;;;;5076931;28;20036;-90
2023/03/27 09:45:51;;;;;;;4.50;1.20;;;;;;;;;;5092880;28;20067;-91
2023/03/27 09:48:37;;;;;;;3.92;0.88;;;;;;;;;;5092884;28;20052;-91
2023/03/27 09:51:04;;;;;;;4.07;0.80;;;;;;;;;;5062483;28;20047;-94
2023/03/27 09:53:29;;;;;;;3.15;0.93;;;;;;;;;;5076849;28;20036;-92
2023/03/27 09:55:58;;;;;;;3.33;0.90;;;;;;;;;;5067215;28;20086;-92
2023/03/27 09:58:27;;;;;;;2.50;0.82;;;;;;;;;;5077103;28;20430;-92
2023/03/27 10:01:06;;;;;;;3.55;1.20;;;;;;;;;;5058718;28;20032;-89
2023/03/27 10:03:35;;;;;;;2.33;0.80;;;;;;;;;;5075764;28;20032;-91
2023/03/27 10:06:12;;;;;;;2.35;1.00;;;;;;;;;;5072101;28;20486;-91
2023/03/27 10:08:44;;;;;;;7.65;1.15;;;;;;;;;;5070125;28;20514;-90
2023/03/27 10:11:19;;;;;;;2.35;0.90;;;;;;;;;;5064883;28;20040;-91
2023/03/27 10:13:48;;;;;;;1.90;0.68;;;;;;;;;;5054930;28;20039;-90
2023/03/27 10:16:16;;;;;;;2.80;0.90;;;;;;;;;;5055088;28;20037;-89
2023/03/27 10:18:46;;;;;;;2.63;1.00;;;;;;;;;;5061868;28;20036;-90
2023/03/27 10:21:30;;;;;;;3.88;0.95;;;;;;;;;;5069665;28;20047;-90
2023/03/27 10:24:19;;;;;;;2.88;1.00;;;;;;;;;;5070430;28;20125;-91
2023/03/27 10:26:48;;;;;;;2.15;0.82;;;;;;;;;;5058462;28;20044;-90
2023/03/27 10:30:39;;;;;;;2.47;0.98;;;;;;;;;;5022073;27;20393;-89
2023/03/27 10:33:06;;;;;;;2.72;1.00;;;;;;;;;;5030618;28;20069;-89
2023/03/27 10:35:38;;;;;;;3.75;1.05;;;;;;;;;;5049754;28;20542;-87
2023/03/27 10:38:14;;;;;;;2.67;0.98;;;;;;;;;;5045003;28;20061;-87
2023/03/27 10:40:41;;;;;;;5.18;1.10;;;;;;;;;;5047720;28;20033;-87
2023/03/27 10:44:38;;;;;;;1.88;1.02;;;;;;;;;;4885102;27;20372;-87
2023/03/27 10:47:13;;;;;;;2.35;1.00;;;;;;;;;;4875993;28;20038;-87
2023/03/27 10:49:50;;;;;;;3.25;0.90;;;;;;;;;;4919508;28;20652;-86
2023/03/27 10:52:19;;;;;;;3.05;1.13;;;;;;;;;;4877941;28;20073;-87
2023/03/27 10:54:49;;;;;;;3.00;0.90;;;;;;;;;;4855654;28;20037;-87
2023/03/27 10:57:36;;;;;;;4.10;1.08;;;;;;;;;;4875424;28;20400;-87
2023/03/27 11:00:12;;;;;;;1.95;1.00;;;;;;;;;;4904075;28;20077;-87
2023/03/27 11:02:49;;;;;;;1.80;0.82;;;;;;;;;;4867297;28;20055;-87
2023/03/27 11:05:15;;;;;;;3.17;1.10;;;;;;;;;;4912761;28;20500;-88
2023/03/27 11:07:52;;;;;;;3.63;1.05;;;;;;;;;;4950669;28;20069;-88
2023/03/27 11:10:23;;;;;;;0.95;0.85;;;;;;;;;;4879645;28;20081;-89
2023/03/27 11:12:53;;;;;;;3.35;1.00;;;;;;;;;;4935162;28;20385;-87
2023/03/27 11:15:22;;;;;;;3.17;1.08;;;;;;;;;;4889002;28;20053;-87
2023/03/27 11:17:54;;;;;;;1.45;0.95;;;;;;;;;;4889674;28;20033;-89
2023/03/27 11:20:22;;;;;;;3.42;1.20;;;;;;;;;;4923358;28;20044;-86
2023/03/27 11:22:52;;;;;;;1.73;0.90;;;;;;;;;;4955926;28;20048;-88
2023/03/27 11:25:18;;;;;;;4.38;1.10;;;;;;;;;;4944821;28;20041;-90
2023/03/27 11:28:02;;;;;;;2.33;0.90;;;;;;;;;;4935484;28;20094;-88
2023/03/27 11:30:37;;;;;;;4.25;1.05;;;;;;;;;;4902224;28;20045;-88
2023/03/27 11:33:15;;;;;;;1.63;0.90;;;;;;;;;;5008037;28;20033;-91
2023/03/27 11:35:45;;;;;;;1.48;1.05;;;;;;;;;;5036452;28;20064;-88
2023/03/27 11:38:17;;;;;;;2.55;0.90;;;;;;;;;;5046747;28;20396;-87
2023/03/27 11:40:44;;;;;;;1.55;0.88;;;;;;;;;;5048309;28;20029;-87
2023/03/27 11:43:11;;;;;;;4.13;1.20;;;;;;;;;;5042110;28;20634;-89
2023/03/27 11:45:55;;;;;;;1.95;0.95;;;;;;;;;;5048951;28;20037;-90
2023/03/27 11:48:33;;;;;;;2.08;1.17;;;;;;;;;;5044054;28;20033;-90
2023/03/27 11:51:10;;;;;;;2.72;1.00;;;;;;;;;;5040547;28;20033;-86
2023/03/27 11:53:55;;;;;;;5.28;1.20;;;;;;;;;;5041271;28;20059;-87
2023/03/27 11:56:23;;;;;;;2.20;0.90;;;;;;;;;;5010967;28;20133;-86
2023/03/27 11:58:55;;;;;;;2.05;0.90;;;;;;;;;;5026543;28;20069;-87
2023/03/27 12:01:47;;;;;;;0.90;0.90;;;;;;;;;;5014855;28;20065;-87
2023/03/27 12:04:18;;;;;;;3.17;1.13;;;;;;;;;;4975799;28;20054;-88
2023/03/27 12:07:18;;;;;;;1.35;0.90;;;;;;;;;;5018856;28;20377;-87
2023/03/27 12:10:01;;;;;;;1.98;1.00;;;;;;;;;;5018749;28;20037;-88
2023/03/27 12:12:42;;;;;;;3.97;0.90;;;;;;;;;;5028709;28;20030;-85
2023/03/27 12:15:13;;;;;;;2.45;0.98;;;;;;;;;;5014280;28;20030;-86
2023/03/27 12:17:45;;;;;;;3.60;1.33;;;;;;;;;;5024646;28;20029;-84
2023/03/27 12:20:26;;;;;;;3.13;1.00;;;;;;;;;;5003836;28;20025;-84
2023/03/27 12:23:11;;;;;;;2.40;1.00;;;;;;;;;;5036198;28;20036;-87
2023/03/27 12:25:40;;;;;;;5.70;1.55;;;;;;;;;;5032074;28;20370;-87
2023/03/27 12:28:09;;;;;;;0.95;0.90;;;;;;;;;;5031998;28;20793;-88
2023/03/27 12:30:48;;;;;;;5.38;1.30;;;;;;;;;;5033801;28;20083;-87
2023/03/27 12:33:33;;;;;;;4.10;1.20;;;;;;;;;;5001342;28;20021;-87
2023/03/27 12:36:00;;;;;;;3.95;1.00;;;;;;;;;;5018784;28;20026;-87
2023/03/27 12:38:30;;;;;;;3.70;1.35;;;;;;;;;;5020984;28;20068;-87
2023/03/27 12:41:00;;;;;;;2.88;1.20;;;;;;;;;;5038846;28;20034;-86
2023/03/27 12:43:32;;;;;;;3.00;1.10;;;;;;;;;;5023850;28;20048;-86
2023/03/27 12:46:06;;;;;;;3.17;0.93;;;;;;;;;;5025328;28;20041;-86
2023/03/27 12:48:33;;;;;;;1.40;1.10;;;;;;;;;;4999664;28;20088;-86
2023/03/27 12:50:59;;;;;;;1.13;0.80;;;;;;;;;;4999312;28;20034;-86
2023/03/27 12:53:24;;;;;;;1.48;1.05;;;;;;;;;;5005258;28;20516;-85
2023/03/27 12:56:12;;;;;;;1.45;1.20;;;;;;;;;;5010047;28;20040;-85
2023/03/27 12:58:38;;;;;;;1.92;0.85;;;;;;;;;;5009494;28;20547;-86
2023/03/27 13:01:09;;;;;;;1.20;1.10;;;;;;;;;;5007621;28;20041;-85
2023/03/27 13:03:47;;;;;;;2.05;0.93;;;;;;;;;;4995230;28;20035;-85
2023/03/27 13:06:13;;;;;;;2.28;0.93;;;;;;;;;;4976529;28;20519;-86
2023/03/27 13:08:53;;;;;;;1.35;0.75;;;;;;;;;;5007146;28;20124;-87
2023/03/27 13:11:27;;;;;;;1.48;0.80;;;;;;;;;;4994039;28;20060;-87
2023/03/27 13:13:53;;;;;;;1.52;0.90;;;;;;;;;;5028965;28;20101;-84
2023/03/27 13:16:41;;;;;;;2.55;1.20;;;;;;;;;;5011991;28;20069;-87
2023/03/27 13:19:25;;;;;;;1.15;0.90;;;;;;;;;;5012580;28;20044;-85
2023/03/27 13:22:09;;;;;;;1.73;1.10;;;;;;;;;;5011706;28;20034;-88
2023/03/27 13:24:53;;;;;;;2.60;1.20;;;;;;;;;;5009158;28;20168;-87
2023/03/27 13:27:38;;;;;;;1.92;1.20;;;;;;;;;;4998974;28;20022;-87
2023/03/27 13:30:04;;;;;;;1.40;1.00;;;;;;;;;;5005631;28;20041;-86
2023/03/27 13:32:32;;;;;;;2.30;1.08;;;;;;;;;;5012284;28;20034;-85
2023/03/27 13:35:27;;;;;;;1.20;1.10;;;;;;;;;;4980316;28;20042;-86
2023/03/27 13:37:56;;;;;;;3.50;1.42;;;;;;;;;;4971831;28;20054;-86
2023/03/27 13:40:25;;;;;;;2.10;0.98;;;;;;;;;;5010101;28;20033;-86
2023/03/27 13:42:57;;;;;;;2.30;0.98;;;;;;;;;;5014573;28;20448;-85
2023/03/27 13:46:45;;;;;;;0.77;0.60;;;;;;;;;;5014658;28;20033;-85
2023/03/27 13:50:17;;;;;;;1.70;0.80;;;;;;;;;;4995040;28;20529;-85
2023/03/27 13:53:55;;;;;;;0.70;0.70;;;;;;;;;;5013368;28;20110;-85
2023/03/27 13:57:42;;;;;;;3.13;0.85;;;;;;;;;;5011473;28;20153;-86
2023/03/27 14:01:16;;;;;;;1.10;0.80;;;;;;;;;;5022059;28;20096;-87
2023/03/27 14:04:58;;;;;;;1.63;0.90;;;;;;;;;;5012291;28;20449;-86
2023/03/27 14:08:39;;;;;;;1.42;0.90;;;;;;;;;;5027647;28;20488;-87
2023/03/27 14:12:10;;;;;;;2.47;1.10;;;;;;;;;;5002519;28;20104;-87
2023/03/27 14:16:07;;;;;;;0.98;0.70;;;;;;;;;;5030397;28;20505;-86
2023/03/27 14:19:46;;;;;;;0.90;0.90;;;;;;;;;;5011017;28;20045;-86
2023/03/27 14:23:28;;;;;;;1.80;0.90;;;;;;;;;;5003924;28;20030;-87
2023/03/27 14:27:02;;;;;;;1.05;0.90;;;;;;;;;;5025368;28;20103;-87
2023/03/27 14:30:31;;;;;;;1.52;1.13;;;;;;;;;;5012895;28;20044;-87
2023/03/27 14:34:05;;;;;;;1.75;1.02;;;;;;;;;;5027910;28;20022;-87
2023/03/27 14:37:37;;;;;;;1.85;1.08;;;;;;;;;;5029514;28;20109;-86
2023/03/27 14:41:24;;;;;;;1.80;1.02;;;;;;;;;;5013319;28;20101;-85
2023/03/27 14:44:54;;;;;;;2.05;1.00;;;;;;;;;;5027741;28;20550;-87
2023/03/27 14:55:25;;;;;;;3.58;1.20;;;;;;;;;;5065190;27;20377;-85
2023/03/27 14:58:45;;;;;;;2.97;1.33;;;;;;;10.42;45.97;97716.31;5044482;27;22395;-84
2023/03/27 15:01:15;;;;;;;5.35;1.30;;;;;;;-143.04;100.00;61139.28;4999844;28;20088;-86
2023/03/27 15:03:46;;;;;;;3.28;1.20;;;;;;;-143.04;100.00;61139.28;5005259;28;20037;-84
2023/03/27 15:07:55;;;;;;;1.53;1.00;;;;;;;;;;5085767;28;372675;-85
2023/03/27 15:10:28;;;;;;;2.45;1.25;;;;;;;;;;5062341;28;20049;-84
2023/03/27 15:12:54;;;;;;;3.13;1.10;;;;;;;;;;5061976;28;20111;-85
2023/03/27 15:18:34;;;;;;;1.35;1.00;;;;;;;;;;4995599;28;20732;-86
2023/03/27 15:21:15;;;;;;;3.05;1.05;;;;;;;;;;4959632;28;20106;-86
2023/03/27 15:23:44;;;;;;;1.25;0.98;;;;;;;;;;4988486;28;20054;-86
2023/03/27 15:26:30;;;;;;;0.88;0.80;;;;;;;;;;4992293;28;20393;-86
2023/03/27 15:29:06;;;;;;;2.83;1.08;;;;;;;;;;4990669;28;20486;-88
2023/03/27 15:31:33;;;;;;;1.40;1.00;;;;;;;;;;4994480;28;20105;-84
2023/03/27 15:34:02;;;;;;;2.30;0.95;;;;;;;;;;4988939;28;20061;-82
2023/03/27 15:36:31;;;;;;;3.90;1.10;;;;;;;;;;4982335;28;20439;-82
2023/03/27 15:38:59;;;;;;;1.77;1.00;;;;;;;;;;4998935;28;20066;-82
2023/03/27 15:41:31;;;;;;;1.63;1.10;;;;;;;;;;4987646;28;20034;-84
2023/03/27 15:44:04;;;;;;;2.75;1.27;;;;;;;;;;4991088;28;20088;-86
2023/03/27 15:46:34;;;;;;;2.03;1.10;;;;;;;;;;4994096;28;20085;-82